Time;durP1;ratioP1;P1;durP2;ratioP2;P2;SDS_P1;SDS_P2;PMS_P1;PMS_P2;Temp;Humidity;BMP_temperature;BMP_pressure;BME280_temperature;BME280_humidity;BME280_pressure;Samples;Min_cycle;Max_cycle;Signal;HPM_P1;HPM_P2
2021/08/12 00:00:45;;;;;;;9.73;3.97;;;;;;;;;;4970028;28;20050;-54
2021/08/12 00:03:12;;;;;;;11.02;4.53;;;;;;;;;;4966196;28;20154;-53
2021/08/12 00:05:39;;;;;;;8.13;3.75;;;;;;;;;;4970602;28;20062;-53
2021/08/12 00:08:06;;;;;;;11.27;4.97;;;;;;;;;;4985486;28;20042;-53
2021/08/12 00:10:34;;;;;;;7.35;3.90;;;;;;;;;;4974497;28;20485;-52
2021/08/12 00:13:01;;;;;;;9.97;3.80;;;;;;;;;;4966537;28;20039;-54
2021/08/12 00:15:27;;;;;;;7.72;3.72;;;;;;;;;;4963474;28;20281;-54
2021/08/12 00:17:53;;;;;;;13.70;4.40;;;;;;;;;;4984196;28;20050;-54
2021/08/12 00:20:20;;;;;;;8.68;4.15;;;;;;;;;;4966517;28;20424;-52
2021/08/12 00:22:47;;;;;;;11.25;4.43;;;;;;;;;;4981219;28;20053;-53
2021/08/12 00:25:13;;;;;;;9.77;4.32;;;;;;;;;;4985981;28;20030;-54
2021/08/12 00:27:41;;;;;;;10.48;4.18;;;;;;;;;;4973127;28;20042;-54
2021/08/12 00:30:08;;;;;;;8.32;3.95;;;;;;;;;;4986790;28;20045;-52
2021/08/12 00:32:35;;;;;;;9.00;4.32;;;;;;;;;;4967880;28;20101;-53
2021/08/12 00:35:01;;;;;;;9.25;3.38;;;;;;;;;;4966148;28;20050;-51
2021/08/12 00:37:27;;;;;;;9.15;4.47;;;;;;;;;;4975944;28;20464;-48
2021/08/12 00:39:54;;;;;;;10.98;4.65;;;;;;;;;;4986467;28;20057;-47
2021/08/12 00:42:22;;;;;;;11.90;4.68;;;;;;;;;;5000472;28;20042;-54
2021/08/12 00:44:50;;;;;;;9.35;4.35;;;;;;;;;;4985981;28;20046;-54
2021/08/12 00:47:16;;;;;;;10.60;4.40;;;;;;;;;;4981323;28;20042;-54
2021/08/12 00:49:42;;;;;;;12.63;4.80;;;;;;;;;;4986678;28;20058;-53
2021/08/12 00:52:10;;;;;;;10.63;4.85;;;;;;;;;;4998774;28;20038;-53
2021/08/12 00:54:37;;;;;;;10.52;4.72;;;;;;;;;;4969482;28;20111;-52
2021/08/12 00:57:05;;;;;;;11.80;4.97;;;;;;;;;;4965636;28;20050;-51
2021/08/12 00:59:34;;;;;;;13.02;4.72;;;;;;;;;;4968604;28;20050;-54
2021/08/12 01:02:03;;;;;;;10.95;4.70;;;;;;;;;;4965865;28;20046;-54
2021/08/12 01:04:29;;;;;;;10.82;4.75;;;;;;;;;;4987039;28;20057;-53
2021/08/12 01:07:00;;;;;;;12.35;4.47;;;;;;;;;;4988750;28;20049;-51
2021/08/12 01:09:32;;;;;;;15.57;5.22;;;;;;;;;;4967001;28;20045;-54
2021/08/12 01:12:00;;;;;;;11.57;5.20;;;;;;;;;;4968612;28;20117;-53
2021/08/12 01:14:28;;;;;;;13.48;5.32;;;;;;;;;;4967136;28;20050;-54
2021/08/12 01:16:56;;;;;;;10.65;5.28;;;;;;;;;;4984363;28;20042;-53
2021/08/12 01:19:32;;;;;;;9.63;5.15;;;;;;;;;;4996038;28;20053;-53
2021/08/12 01:22:01;;;;;;;11.70;5.15;;;;;;;;;;4986461;28;20038;-52
2021/08/12 01:24:30;;;;;;;12.15;4.75;;;;;;;;;;4970310;28;20043;-51
2021/08/12 01:26:59;;;;;;;16.70;5.97;;;;;;;;;;4968377;28;20095;-53
2021/08/12 01:29:32;;;;;;;11.10;5.80;;;;;;;;;;4964656;28;20054;-53
2021/08/12 01:32:04;;;;;;;11.57;5.40;;;;;;;;;;4967904;28;20057;-53
2021/08/12 01:34:41;;;;;;;11.27;5.88;;;;;;;;;;4975394;28;20042;-52
2021/08/12 01:37:11;;;;;;;13.63;5.18;;;;;;;;;;4988340;28;20052;-53
2021/08/12 01:39:37;;;;;;;12.10;5.45;;;;;;;;;;4976203;28;20039;-54
2021/08/12 01:42:06;;;;;;;12.43;5.10;;;;;;;;;;4985653;28;20078;-53
2021/08/12 01:44:33;;;;;;;9.90;5.38;;;;;;;;;;4970811;28;20066;-53
2021/08/12 01:46:59;;;;;;;11.15;5.65;;;;;;;;;;5006076;28;20038;-51
2021/08/12 01:49:26;;;;;;;12.15;5.90;;;;;;;;;;4984293;28;20038;-53
2021/08/12 01:51:55;;;;;;;13.13;5.53;;;;;;;;;;4987391;28;20228;-52
2021/08/12 01:54:21;;;;;;;14.82;5.80;;;;;;;;;;4979988;28;20058;-54
2021/08/12 01:56:48;;;;;;;12.27;5.63;;;;;;;;;;4984558;28;20042;-53
2021/08/12 01:59:15;;;;;;;14.10;5.47;;;;;;;;;;4967023;28;20034;-54
2021/08/12 02:01:46;;;;;;;12.30;6.07;;;;;;;;;;4957489;28;20050;-49
2021/08/12 02:04:14;;;;;;;11.32;5.55;;;;;;;;;;4968359;28;20030;-53
2021/08/12 02:06:40;;;;;;;11.95;6.00;;;;;;;;;;4965887;28;20054;-52
2021/08/12 02:09:08;;;;;;;12.30;6.05;;;;;;;;;;4985402;28;20055;-51
2021/08/12 02:11:35;;;;;;;13.70;6.40;;;;;;;;;;4966763;28;20124;-51
2021/08/12 02:14:01;;;;;;;14.20;5.93;;;;;;;;;;4969832;28;20061;-49
2021/08/12 02:16:28;;;;;;;12.40;6.20;;;;;;;;;;4966120;28;20038;-53
2021/08/12 02:18:54;;;;;;;12.80;6.30;;;;;;;;;;4968111;28;20053;-52
2021/08/12 02:21:22;;;;;;;14.27;6.15;;;;;;;;;;4973377;28;20140;-54
2021/08/12 02:23:54;;;;;;;14.50;6.60;;;;;;;;;;4987952;28;20165;-51
2021/08/12 02:26:22;;;;;;;12.85;6.35;;;;;;;;;;4982679;28;20306;-52
2021/08/12 02:28:49;;;;;;;14.30;6.20;;;;;;;;;;4987868;28;20038;-51
2021/08/12 02:31:17;;;;;;;13.18;6.32;;;;;;;;;;4982996;28;20034;-52
2021/08/12 02:33:46;;;;;;;16.53;7.00;;;;;;;;;;4984648;28;20073;-52
2021/08/12 02:36:12;;;;;;;15.32;6.47;;;;;;;;;;4978949;28;20078;-53
2021/08/12 02:38:41;;;;;;;12.45;6.30;;;;;;;;;;4966984;28;20129;-52
2021/08/12 02:41:09;;;;;;;14.93;6.68;;;;;;;;;;4963764;28;20053;-52
2021/08/12 02:43:39;;;;;;;13.75;6.32;;;;;;;;;;4966820;28;20121;-53
2021/08/12 02:46:06;;;;;;;11.88;6.38;;;;;;;;;;4983407;28;20057;-52
2021/08/12 02:48:34;;;;;;;12.38;6.32;;;;;;;;;;4987175;28;20098;-53
2021/08/12 02:51:01;;;;;;;12.35;5.70;;;;;;;;;;4985459;28;20071;-52
2021/08/12 02:53:28;;;;;;;13.80;6.30;;;;;;;;;;4965540;28;20174;-50
2021/08/12 02:55:56;;;;;;;12.65;6.03;;;;;;;;;;4984979;28;20038;-53
2021/08/12 02:58:22;;;;;;;14.40;6.85;;;;;;;;;;4983317;28;20034;-52
2021/08/12 03:00:51;;;;;;;17.50;6.63;;;;;;;;;;4986703;28;20045;-51
2021/08/12 03:03:19;;;;;;;14.23;6.85;;;;;;;;;;4966879;28;20125;-50
2021/08/12 03:05:46;;;;;;;14.00;6.70;;;;;;;;;;4966491;28;20061;-52
2021/08/12 03:08:15;;;;;;;17.33;7.55;;;;;;;;;;4980505;28;20043;-49
2021/08/12 03:10:42;;;;;;;13.43;7.28;;;;;;;;;;4974661;28;20097;-53
2021/08/12 03:13:09;;;;;;;16.58;7.22;;;;;;;;;;4980465;28;20053;-53
2021/08/12 03:15:37;;;;;;;12.05;6.35;;;;;;;;;;4985437;28;20046;-49
2021/08/12 03:18:05;;;;;;;14.80;7.30;;;;;;;;;;4983028;28;20057;-51
2021/08/12 03:20:32;;;;;;;17.63;7.28;;;;;;;;;;4987062;28;20042;-53
2021/08/12 03:22:58;;;;;;;13.57;7.38;;;;;;;;;;4995818;28;20067;-51
2021/08/12 03:25:26;;;;;;;14.23;6.85;;;;;;;;;;4984952;28;20051;-50
2021/08/12 03:27:52;;;;;;;14.23;7.28;;;;;;;;;;4964411;28;20042;-51
2021/08/12 03:30:18;;;;;;;16.80;7.57;;;;;;;;;;5004089;28;20045;-51
2021/08/12 03:32:47;;;;;;;16.40;7.30;;;;;;;;;;4986605;28;20042;-52
2021/08/12 03:35:14;;;;;;;12.73;6.97;;;;;;;;;;5000632;28;20046;-49
2021/08/12 03:37:41;;;;;;;15.60;7.25;;;;;;;;;;4987403;28;20034;-53
2021/08/12 03:40:08;;;;;;;15.15;7.32;;;;;;;;;;4981591;28;20057;-52
2021/08/12 03:42:35;;;;;;;16.10;7.53;;;;;;;;;;4986580;28;20115;-50
2021/08/12 03:45:02;;;;;;;17.58;7.45;;;;;;;;;;4983802;28;20050;-49
2021/08/12 03:47:28;;;;;;;13.82;7.00;;;;;;;;;;5006264;28;20042;-47
2021/08/12 03:49:54;;;;;;;15.02;7.03;;;;;;;;;;4989848;28;20120;-52
2021/08/12 03:52:24;;;;;;;16.42;7.68;;;;;;;;;;4966119;28;20198;-52
2021/08/12 03:54:50;;;;;;;15.77;7.50;;;;;;;;;;4963560;28;20043;-52
2021/08/12 03:57:17;;;;;;;15.57;7.53;;;;;;;;;;4966669;28;20030;-52
2021/08/12 03:59:43;;;;;;;13.77;6.88;;;;;;;;;;4969605;28;20045;-49
2021/08/12 04:02:10;;;;;;;14.02;6.97;;;;;;;;;;4986491;28;20049;-51
2021/08/12 04:04:36;;;;;;;17.80;7.78;;;;;;;;;;4981186;28;20037;-50
2021/08/12 04:07:03;;;;;;;17.02;8.18;;;;;;;;;;4986611;28;20042;-51
2021/08/12 04:09:31;;;;;;;13.95;7.30;;;;;;;;;;4981146;28;20054;-51
2021/08/12 04:11:57;;;;;;;16.88;7.72;;;;;;;;;;4982802;28;20043;-52
2021/08/12 04:14:24;;;;;;;15.25;7.68;;;;;;;;;;4982862;28;20070;-51
2021/08/12 04:16:52;;;;;;;14.32;7.68;;;;;;;;;;4981005;28;20053;-53
2021/08/12 04:19:18;;;;;;;14.23;7.30;;;;;;;;;;4985953;28;20057;-51
2021/08/12 04:21:45;;;;;;;19.05;7.07;;;;;;;;;;4965691;28;20046;-50
2021/08/12 04:24:11;;;;;;;14.60;7.63;;;;;;;;;;4964578;28;20129;-49
2021/08/12 04:26:39;;;;;;;15.85;7.07;;;;;;;;;;4964864;28;20117;-53
2021/08/12 04:29:06;;;;;;;14.60;7.93;;;;;;;;;;4966866;28;20049;-52
2021/08/12 04:31:32;;;;;;;16.38;7.32;;;;;;;;;;4974199;28;20062;-51
2021/08/12 04:33:59;;;;;;;20.38;8.13;;;;;;;;;;4986306;28;20034;-50
2021/08/12 04:36:25;;;;;;;15.88;7.22;;;;;;;;;;4971357;28;20140;-52
2021/08/12 04:38:51;;;;;;;14.55;7.57;;;;;;;;;;4968891;28;20035;-51
2021/08/12 04:41:18;;;;;;;14.98;7.93;;;;;;;;;;4963064;28;20046;-52
2021/08/12 04:43:46;;;;;;;17.10;7.43;;;;;;;;;;4966984;28;20039;-51
2021/08/12 04:46:13;;;;;;;12.80;6.70;;;;;;;;;;4963292;28;20055;-51
2021/08/12 04:48:39;;;;;;;18.20;7.88;;;;;;;;;;4965334;28;20050;-52
2021/08/12 04:51:06;;;;;;;14.40;7.07;;;;;;;;;;4963643;28;20042;-52
2021/08/12 04:53:32;;;;;;;14.23;7.40;;;;;;;;;;4965987;28;20047;-52
2021/08/12 04:55:59;;;;;;;15.27;7.30;;;;;;;;;;4965934;28;20058;-53
2021/08/12 04:58:25;;;;;;;16.23;7.65;;;;;;;;;;4980540;28;20046;-52
2021/08/12 05:00:55;;;;;;;15.32;8.00;;;;;;;;;;4983530;28;20046;-52
2021/08/12 05:03:22;;;;;;;15.07;7.55;;;;;;;;;;4963593;28;20046;-52
2021/08/12 05:05:48;;;;;;;14.93;7.97;;;;;;;;;;4965699;28;20054;-48
2021/08/12 05:08:15;;;;;;;17.73;8.43;;;;;;;;;;4962776;28;20053;-50
2021/08/12 05:10:45;;;;;;;14.32;7.78;;;;;;;;;;4983679;28;20066;-50
2021/08/12 05:13:12;;;;;;;20.25;9.52;;;;;;;;;;4989535;28;20038;-50
2021/08/12 05:15:38;;;;;;;20.05;10.00;;;;;;;;;;4985276;28;20050;-53
2021/08/12 05:18:06;;;;;;;20.38;10.20;;;;;;;;;;4991208;28;20050;-47
2021/08/12 05:20:32;;;;;;;21.23;10.20;;;;;;;;;;4967366;28;20035;-47
2021/08/12 05:23:00;;;;;;;17.42;9.60;;;;;;;;;;4963655;28;20109;-50
2021/08/12 05:25:26;;;;;;;17.85;9.38;;;;;;;;;;4979073;28;20061;-51
2021/08/12 05:27:53;;;;;;;18.23;8.95;;;;;;;;;;4977116;28;20050;-49
2021/08/12 05:30:19;;;;;;;19.85;9.10;;;;;;;;;;4997039;28;20058;-48
2021/08/12 05:32:47;;;;;;;18.33;9.15;;;;;;;;;;4977657;28;20049;-48
2021/08/12 05:35:15;;;;;;;19.02;8.80;;;;;;;;;;4999601;28;20045;-52
2021/08/12 05:37:42;;;;;;;15.90;8.75;;;;;;;;;;4997617;28;20034;-50
2021/08/12 05:40:09;;;;;;;17.30;9.77;;;;;;;;;;4998098;28;20129;-50
2021/08/12 05:42:37;;;;;;;24.73;9.18;;;;;;;;;;4981665;28;20039;-49
2021/08/12 05:45:05;;;;;;;21.60;9.63;;;;;;;;;;4979289;28;20031;-51
2021/08/12 05:47:31;;;;;;;25.85;12.35;;;;;;;;;;4982359;28;20052;-49
2021/08/12 05:49:57;;;;;;;34.95;14.57;;;;;;;;;;4982286;28;20124;-49
2021/08/12 05:52:26;;;;;;;25.00;11.90;;;;;;;;;;4981243;28;20050;-49
2021/08/12 05:54:52;;;;;;;25.08;10.27;;;;;;;;;;4974592;28;20038;-53
2021/08/12 05:57:18;;;;;;;14.88;8.20;;;;;;;;;;4979388;28;20046;-52
2021/08/12 05:59:45;;;;;;;20.73;9.23;;;;;;;;;;4975182;28;20050;-51
2021/08/12 06:02:12;;;;;;;19.77;9.80;;;;;;;;;;4975644;28;20112;-53
2021/08/12 06:04:38;;;;;;;25.75;10.45;;;;;;;;;;4975923;28;20053;-51
2021/08/12 06:07:05;;;;;;;26.70;11.93;;;;;;;;;;4981516;28;20045;-51
2021/08/12 06:09:33;;;;;;;22.75;11.50;;;;;;;;;;4977739;28;20042;-50
2021/08/12 06:12:03;;;;;;;26.55;11.25;;;;;;;;;;4988502;28;20085;-48
2021/08/12 06:14:29;;;;;;;19.92;10.65;;;;;;;;;;4963680;28;20049;-50
2021/08/12 06:16:56;;;;;;;24.58;11.75;;;;;;;;;;4968402;28;20206;-52
2021/08/12 06:19:22;;;;;;;23.90;11.32;;;;;;;;;;4966316;28;20196;-50
2021/08/12 06:21:48;;;;;;;20.98;11.23;;;;;;;;;;4967301;28;20054;-49
2021/08/12 06:24:15;;;;;;;23.65;12.77;;;;;;;;;;4960169;28;20047;-53
2021/08/12 06:26:45;;;;;;;22.10;12.00;;;;;;;;;;4963683;28;20047;-51
2021/08/12 06:29:11;;;;;;;21.63;11.38;;;;;;;;;;4964013;28;20047;-49
2021/08/12 06:31:38;;;;;;;23.63;11.45;;;;;;;;;;4963729;28;20126;-50
2021/08/12 06:34:04;;;;;;;22.10;10.60;;;;;;;;;;4964517;28;20035;-50
2021/08/12 06:36:32;;;;;;;21.40;9.93;;;;;;;;;;4975272;28;20038;-53
2021/08/12 06:38:59;;;;;;;21.23;10.63;;;;;;;;;;4983338;28;20043;-50
2021/08/12 06:41:26;;;;;;;19.90;9.82;;;;;;;;;;4971026;28;20065;-50
2021/08/12 06:43:55;;;;;;;19.08;9.80;;;;;;;;;;4963394;28;20054;-51
2021/08/12 06:46:21;;;;;;;18.83;9.15;;;;;;;;;;4969489;28;20039;-52
2021/08/12 06:48:47;;;;;;;20.92;10.20;;;;;;;;;;4984329;28;20046;-49
2021/08/12 06:51:14;;;;;;;23.63;10.05;;;;;;;;;;4980024;28;20039;-51
2021/08/12 06:53:41;;;;;;;20.60;10.30;;;;;;;;;;4985905;28;20086;-46
2021/08/12 06:56:08;;;;;;;17.88;9.43;;;;;;;;;;4965055;28;20055;-52
2021/08/12 06:58:35;;;;;;;18.60;10.50;;;;;;;;;;4964725;28;20054;-49
2021/08/12 07:01:03;;;;;;;18.83;9.98;;;;;;;;;;4953594;28;20047;-50
2021/08/12 07:03:30;;;;;;;19.10;10.00;;;;;;;;;;4964490;28;20113;-50
2021/08/12 07:05:56;;;;;;;26.40;10.32;;;;;;;;;;4966458;28;20043;-53
2021/08/12 07:08:22;;;;;;;28.48;9.63;;;;;;;;;;4981107;28;20066;-53
2021/08/12 07:10:49;;;;;;;17.42;9.63;;;;;;;;;;4971663;28;20117;-51
2021/08/12 07:13:15;;;;;;;17.83;9.32;;;;;;;;;;4975822;28;20078;-52
2021/08/12 07:15:42;;;;;;;18.55;9.63;;;;;;;;;;4983626;28;20054;-52
2021/08/12 07:18:10;;;;;;;20.30;8.80;;;;;;;;;;4967614;28;20118;-53
2021/08/12 07:20:37;;;;;;;30.40;9.60;;;;;;;;;;4964296;28;20042;-52
2021/08/12 07:23:03;;;;;;;20.30;9.38;;;;;;;;;;4959117;28;20289;-54
2021/08/12 07:25:30;;;;;;;19.00;9.20;;;;;;;;;;4964105;28;20039;-50
2021/08/12 07:27:56;;;;;;;19.20;8.70;;;;;;;;;;4960607;28;20043;-53
2021/08/12 07:30:23;;;;;;;15.60;8.52;;;;;;;;;;4965757;28;20043;-54
2021/08/12 07:32:50;;;;;;;14.48;7.95;;;;;;;;;;4960785;28;20046;-51
2021/08/12 07:35:21;;;;;;;16.58;7.57;;;;;;;;;;4962308;28;20051;-53
2021/08/12 07:37:47;;;;;;;18.05;7.72;;;;;;;;;;4964992;28;20823;-53
2021/08/12 07:40:14;;;;;;;16.85;8.30;;;;;;;;;;4982601;28;20034;-50
2021/08/12 07:42:40;;;;;;;16.30;8.00;;;;;;;;;;4980036;28;20031;-53
2021/08/12 07:45:07;;;;;;;16.08;8.13;;;;;;;;;;4966908;28;20045;-51
2021/08/12 07:47:34;;;;;;;13.13;6.85;;;;;;;;;;4982936;28;20043;-53
2021/08/12 07:50:00;;;;;;;13.93;7.28;;;;;;;;;;4981146;28;20039;-50
2021/08/12 07:52:29;;;;;;;17.13;7.72;;;;;;;;;;4983597;28;20046;-53
2021/08/12 07:54:55;;;;;;;16.75;7.57;;;;;;;;;;4974159;28;20042;-52
2021/08/12 07:57:21;;;;;;;17.60;7.22;;;;;;;;;;4984064;28;20053;-53
2021/08/12 07:59:48;;;;;;;19.90;7.72;;;;;;;;;;4964349;28;20050;-53
2021/08/12 08:02:15;;;;;;;15.43;7.68;;;;;;;;;;4963791;28;20068;-53
2021/08/12 08:04:43;;;;;;;20.63;7.47;;;;;;;;;;4959482;28;20070;-54
2021/08/12 08:07:09;;;;;;;14.75;7.47;;;;;;;;;;4964059;28;20051;-54
2021/08/12 08:09:37;;;;;;;18.65;8.32;;;;;;;;;;4960024;28;20046;-53
2021/08/12 08:12:04;;;;;;;22.17;9.87;;;;;;;;;;4962003;28;20039;-52
2021/08/12 08:14:30;;;;;;;16.30;9.18;;;;;;;;;;4959555;28;20312;-53
2021/08/12 08:16:57;;;;;;;18.75;8.50;;;;;;;;;;4962935;28;20050;-55
2021/08/12 08:19:23;;;;;;;20.25;8.38;;;;;;;;;;4964180;28;20042;-53
2021/08/12 08:21:50;;;;;;;21.33;7.97;;;;;;;;;;4983372;28;20128;-53
2021/08/12 08:24:17;;;;;;;16.25;7.85;;;;;;;;;;4979458;28;20121;-52
2021/08/12 08:26:47;;;;;;;18.08;8.52;;;;;;;;;;4982968;28;20058;-47
2021/08/12 08:29:13;;;;;;;25.35;11.18;;;;;;;;;;4983159;28;20034;-51
2021/08/12 08:31:42;;;;;;;23.25;9.50;;;;;;;;;;4951314;28;20054;-52
2021/08/12 08:34:08;;;;;;;18.73;8.25;;;;;;;;;;4963497;28;20039;-50
2021/08/12 08:36:35;;;;;;;15.38;8.07;;;;;;;;;;4958962;28;20097;-49
2021/08/12 08:39:01;;;;;;;16.92;8.90;;;;;;;;;;4978734;28;20046;-53
2021/08/12 08:41:28;;;;;;;16.92;7.72;;;;;;;;;;4964966;28;20043;-51
2021/08/12 08:43:56;;;;;;;15.80;8.10;;;;;;;;;;4962683;28;20043;-51
2021/08/12 08:46:23;;;;;;;;;;;;;;;;;;4960232;28;20067;-51
2021/08/12 08:48:50;;;;;;;20.42;7.95;;;;;;;;;;4961328;28;19938;-52
2021/08/12 08:51:16;;;;;;;19.33;8.32;;;;;;;;;;4958531;28;20103;-52
2021/08/12 08:53:44;;;;;;;21.42;8.00;;;;;;;;;;4961666;28;20051;-53
2021/08/12 08:56:10;;;;;;;14.15;7.60;;;;;;;;;;4978758;28;20042;-52
2021/08/12 08:58:37;;;;;;;15.10;7.70;;;;;;;;;;4980894;28;20050;-51
2021/08/12 09:01:05;;;;;;;14.57;7.45;;;;;;;;;;4976817;28;20122;-53
2021/08/12 09:03:32;;;;;;;16.50;6.95;;;;;;;;;;4980464;28;20035;-52
2021/08/12 09:05:58;;;;;;;14.25;6.80;;;;;;;;;;4975227;28;20055;-53
2021/08/12 09:08:26;;;;;;;20.65;7.63;;;;;;;;;;4963734;28;20109;-51
2021/08/12 09:10:53;;;;;;;14.38;7.10;;;;;;;;;;4962465;28;20051;-52
2021/08/12 09:13:20;;;;;;;18.45;8.68;;;;;;;;;;4979140;28;20162;-53
2021/08/12 09:15:46;;;;;;;21.10;7.47;;;;;;;;;;4985613;28;21794;-51
2021/08/12 09:18:21;;;;;;;16.10;6.28;;;;;;;;;;4981115;28;20050;-52
2021/08/12 09:20:49;;;;;;;17.35;7.55;;;;;;;;;;4982839;28;20039;-54
2021/08/12 09:23:21;;;;;;;15.75;6.65;;;;;;;;;;4967253;28;20054;-50
2021/08/12 09:25:48;;;;;;;14.27;7.03;;;;;;;;;;4957130;28;20054;-52
2021/08/12 09:28:16;;;;;;;14.63;7.18;;;;;;;;;;4975583;28;20069;-48
2021/08/12 09:30:43;;;;;;;17.95;7.22;;;;;;;;;;4984415;28;20051;-51
2021/08/12 09:33:25;;;;;;;14.18;6.75;;;;;;;;;;4979859;28;20050;-53
2021/08/12 09:35:53;;;;;;;16.20;7.10;;;;;;;;;;4983842;28;20078;-51
2021/08/12 09:38:21;;;;;;;11.95;6.18;;;;;;;;;;4980475;28;20050;-53
2021/08/12 09:40:52;;;;;;;15.85;7.10;;;;;;;;;;4985457;28;20074;-54
2021/08/12 09:43:20;;;;;;;13.00;7.05;;;;;;;;;;4974345;28;20050;-50
2021/08/12 09:45:46;;;;;;;11.85;5.90;;;;;;;;;;4964062;28;20047;-53
2021/08/12 09:48:15;;;;;;;14.50;7.32;;;;;;;;;;4960935;28;20060;-53
2021/08/12 09:50:43;;;;;;;15.40;5.95;;;;;;;;;;4965301;28;20035;-54
2021/08/12 09:53:18;;;;;;;12.43;5.28;;;;;;;;;;4963338;28;20043;-54
2021/08/12 09:55:45;;;;;;;13.52;4.80;;;;;;;;;;4965335;28;20055;-52
2021/08/12 09:58:12;;;;;;;11.27;4.55;;;;;;;;;;4965652;28;20054;-53
2021/08/12 10:00:41;;;;;;;10.73;5.30;;;;;;;;;;4987317;28;20043;-59
2021/08/12 10:03:21;;;;;;;10.88;5.10;;;;;;;;;;4982035;28;20090;-58
2021/08/12 10:05:47;;;;;;;13.88;6.53;;;;;;;;;;4966006;28;20058;-54
2021/08/12 10:08:25;;;;;;;15.95;5.93;;;;;;;;;;4964902;28;20045;-56
2021/08/12 10:10:51;;;;;;;15.00;5.32;;;;;;;;;;4974552;28;20124;-57
2021/08/12 10:13:18;;;;;;;13.50;5.15;;;;;;;;;;4984840;28;20050;-55
2021/08/12 10:15:49;;;;;;;9.45;4.80;;;;;;;;;;4978866;28;20050;-55
2021/08/12 10:18:16;;;;;;;17.30;6.40;;;;;;;;;;4984914;28;20170;-56
2021/08/12 10:20:45;;;;;;;10.23;5.40;;;;;;;;;;4961927;28;20035;-52
2021/08/12 10:23:13;;;;;;;12.15;5.03;;;;;;;;;;4961589;28;20082;-55
2021/08/12 10:25:41;;;;;;;16.80;5.38;;;;;;;;;;4961459;28;20051;-55
2021/08/12 10:28:08;;;;;;;13.10;5.63;;;;;;;;;;4971921;28;20035;-56
2021/08/12 10:30:35;;;;;;;10.63;4.95;;;;;;;;;;4980538;28;20050;-53
2021/08/12 10:33:02;;;;;;;13.48;5.15;;;;;;;;;;4966390;28;20046;-57
2021/08/12 10:35:30;;;;;;;8.75;4.72;;;;;;;;;;4964893;28;20043;-56
2021/08/12 10:37:57;;;;;;;9.70;4.85;;;;;;;;;;4968591;28;20053;-55
2021/08/12 10:40:25;;;;;;;10.40;5.18;;;;;;;;;;4970038;28;20046;-55
2021/08/12 10:42:53;;;;;;;11.73;5.68;;;;;;;;;;4986960;28;20070;-52
2021/08/12 10:45:21;;;;;;;13.73;5.40;;;;;;;;;;4994815;28;20051;-55
2021/08/12 10:47:51;;;;;;;15.55;4.88;;;;;;;;;;4968225;28;20049;-52
2021/08/12 10:50:32;;;;;;;13.10;5.38;;;;;;;;;;4981675;28;20102;-55
2021/08/12 10:53:17;;;;;;;13.52;4.70;;;;;;;;;;4984793;28;20049;-55
2021/08/12 10:56:04;;;;;;;13.98;5.18;;;;;;;;;;4985638;28;20042;-54
2021/08/12 10:58:36;;;;;;;11.52;4.38;;;;;;;;;;4987323;28;20042;-55
2021/08/12 11:01:04;;;;;;;13.77;6.40;;;;;;;;;;4976283;28;20170;-56
2021/08/12 11:03:43;;;;;;;14.10;5.30;;;;;;;;;;4967397;28;20157;-55
2021/08/12 11:06:09;;;;;;;;;;;;;;;;;;4986647;28;20038;-57
2021/08/12 11:08:54;;;;;;;9.90;4.65;;;;;;;;;;5002881;28;19922;-56
2021/08/12 11:11:50;;;;;;;14.88;5.47;;;;;;;;;;4973442;28;20040;-54
2021/08/12 11:14:37;;;;;;;9.55;4.65;;;;;;;;;;4984464;28;20058;-55
2021/08/12 11:17:04;;;;;;;11.25;5.78;;;;;;;;;;4981716;28;20065;-56
2021/08/12 11:19:34;;;;;;;12.93;5.75;;;;;;;;;;4987234;28;20038;-57
2021/08/12 11:22:01;;;;;;;10.25;5.25;;;;;;;;;;4981966;28;20105;-55
2021/08/12 11:24:46;;;;;;;9.82;5.07;;;;;;;;;;4985361;28;20042;-56
2021/08/12 11:27:13;;;;;;;9.88;4.93;;;;;;;;;;4993885;28;20054;-55
2021/08/12 11:29:41;;;;;;;11.57;4.53;;;;;;;;;;4966150;28;20125;-57
2021/08/12 11:32:10;;;;;;;13.02;4.88;;;;;;;;;;4964290;28;20039;-57
2021/08/12 11:34:39;;;;;;;10.18;4.90;;;;;;;;;;4968194;28;20125;-53
2021/08/12 11:37:07;;;;;;;13.10;4.63;;;;;;;;;;4984225;28;20042;-58
2021/08/12 11:39:33;;;;;;;11.23;4.35;;;;;;;;;;4988282;28;20092;-57
2021/08/12 11:42:00;;;;;;;9.98;4.30;;;;;;;;;;5000324;28;20109;-52
2021/08/12 11:44:27;;;;;;;9.80;4.13;;;;;;;;;;4985644;28;20042;-56
2021/08/12 11:46:56;;;;;;;7.22;3.38;;;;;;;;;;4985878;28;20046;-57
2021/08/12 11:49:22;;;;;;;8.25;3.55;;;;;;;;;;4983577;28;20038;-56
2021/08/12 11:51:58;;;;;;;10.43;3.65;;;;;;;;;;4986383;28;20039;-55
2021/08/12 11:54:26;;;;;;;8.90;3.72;;;;;;;;;;4970920;28;20056;-57
2021/08/12 11:56:53;;;;;;;9.07;3.70;;;;;;;;;;4986279;28;20034;-57
2021/08/12 11:59:24;;;;;;;9.98;3.50;;;;;;;;;;4971470;28;20042;-57
2021/08/12 12:01:51;;;;;;;9.02;3.58;;;;;;;;;;4985852;28;20057;-57
2021/08/12 12:04:20;;;;;;;8.53;3.83;;;;;;;;;;4968253;28;20042;-55
2021/08/12 12:06:48;;;;;;;11.93;3.42;;;;;;;;;;4968079;28;20042;-56
2021/08/12 12:09:19;;;;;;;8.73;3.65;;;;;;;;;;4973640;28;20064;-56
2021/08/12 12:11:49;;;;;;;8.10;3.90;;;;;;;;;;4967375;28;20042;-55
2021/08/12 12:14:18;;;;;;;6.45;3.17;;;;;;;;;;4971777;28;20030;-57
2021/08/12 12:16:44;;;;;;;10.15;3.60;;;;;;;;;;5000951;28;20057;-52
2021/08/12 12:19:11;;;;;;;9.80;3.83;;;;;;;;;;4973792;28;20031;-56
2021/08/12 12:21:38;;;;;;;11.40;3.70;;;;;;;;;;4965024;28;20050;-57
2021/08/12 12:24:06;;;;;;;7.10;3.50;;;;;;;;;;4961552;28;20050;-57
2021/08/12 12:26:32;;;;;;;7.07;3.50;;;;;;;;;;4965389;28;20054;-55
2021/08/12 12:28:59;;;;;;;11.88;4.38;;;;;;;;;;4980712;28;20049;-57
2021/08/12 12:31:25;;;;;;;11.20;4.38;;;;;;;;;;4965377;28;20047;-55
2021/08/12 12:33:56;;;;;;;9.88;3.92;;;;;;;;;;4966655;28;20057;-55
2021/08/12 12:36:23;;;;;;;12.32;3.92;;;;;;;;;;4985124;28;20066;-55
2021/08/12 12:38:52;;;;;;;8.55;3.83;;;;;;;;;;4986738;28;20035;-55
2021/08/12 12:41:19;;;;;;;9.40;3.70;;;;;;;;;;4965255;28;20046;-57
2021/08/12 12:43:46;;;;;;;9.23;4.00;;;;;;;;;;4983571;28;20046;-53
2021/08/12 12:46:12;;;;;;;11.05;3.92;;;;;;;;;;4995986;28;20042;-54
2021/08/12 12:48:41;;;;;;;8.48;3.50;;;;;;;;;;4989068;28;20034;-56
2021/08/12 12:51:09;;;;;;;8.25;3.67;;;;;;;;;;4989476;28;20047;-57
2021/08/12 12:53:37;;;;;;;7.97;3.33;;;;;;;;;;4969574;28;20043;-55
2021/08/12 12:56:05;;;;;;;8.65;3.63;;;;;;;;;;4966658;28;20050;-55
2021/08/12 12:58:36;;;;;;;8.32;3.65;;;;;;;;;;4968160;28;20050;-56
2021/08/12 13:01:03;;;;;;;8.10;3.85;;;;;;;;;;4965561;28;20070;-55
2021/08/12 13:03:31;;;;;;;9.82;4.20;;;;;;;;;;4968188;28;20038;-55
2021/08/12 13:06:00;;;;;;;7.65;3.75;;;;;;;;;;4965241;28;20038;-55
2021/08/12 13:08:34;;;;;;;7.95;3.92;;;;;;;;;;4986639;28;20074;-55
2021/08/12 13:11:06;;;;;;;11.75;3.72;;;;;;;;;;4973335;28;20045;-57
2021/08/12 13:13:36;;;;;;;12.20;4.78;;;;;;;;;;4969949;28;20038;-57
2021/08/12 13:16:02;;;;;;;9.68;4.30;;;;;;;;;;4967937;28;20058;-58
2021/08/12 13:18:43;;;;;;;12.13;4.15;;;;;;;;;;4970670;28;20160;-53
2021/08/12 13:21:23;;;;;;;10.05;3.97;;;;;;;;;;4983410;28;20050;-57
2021/08/12 13:23:53;;;;;;;8.85;3.88;;;;;;;;;;4978408;28;20034;-57
2021/08/12 13:26:27;;;;;;;10.73;4.78;;;;;;;;;;4984243;28;20148;-57
2021/08/12 13:29:02;;;;;;;11.48;4.38;;;;;;;;;;4986347;28;20082;-56
2021/08/12 13:31:35;;;;;;;9.18;3.97;;;;;;;;;;4966288;28;20054;-57
2021/08/12 13:34:01;;;;;;;8.13;3.72;;;;;;;;;;4968577;28;20050;-57
2021/08/12 13:36:28;;;;;;;10.40;4.93;;;;;;;;;;4980686;28;20050;-54
2021/08/12 13:38:54;;;;;;;8.45;3.90;;;;;;;;;;4984334;28;20063;-56
2021/08/12 13:41:20;;;;;;;13.70;3.90;;;;;;;;;;4967000;28;20057;-56
2021/08/12 13:43:49;;;;;;;9.10;4.38;;;;;;;;;;4980530;28;20046;-55
2021/08/12 13:46:15;;;;;;;11.75;4.00;;;;;;;;;;4966955;28;20188;-57
2021/08/12 13:48:42;;;;;;;10.27;4.00;;;;;;;;;;4981801;28;20043;-56
2021/08/12 13:51:08;;;;;;;10.38;4.15;;;;;;;;;;4966953;28;20058;-57
2021/08/12 13:53:35;;;;;;;8.13;4.25;;;;;;;;;;4963699;28;20055;-55
2021/08/12 13:56:01;;;;;;;11.73;4.15;;;;;;;;;;4987003;28;20042;-56
2021/08/12 13:58:28;;;;;;;10.57;3.97;;;;;;;;;;4988906;28;20050;-56
2021/08/12 14:00:56;;;;;;;10.43;4.40;;;;;;;;;;4968428;28;20037;-57
2021/08/12 14:03:23;;;;;;;12.10;4.32;;;;;;;;;;4983775;28;20058;-55
2021/08/12 14:05:50;;;;;;;11.03;4.10;;;;;;;;;;4985735;28;20158;-57
2021/08/12 14:08:16;;;;;;;12.40;4.95;;;;;;;;;;4966767;28;20046;-57
2021/08/12 14:10:43;;;;;;;13.20;4.28;;;;;;;;;;4975547;28;20101;-55
2021/08/12 14:13:09;;;;;;;13.15;4.60;;;;;;;;;;4984211;28;20046;-57
2021/08/12 14:15:36;;;;;;;11.27;4.53;;;;;;;;;;4969249;28;20050;-57
2021/08/12 14:18:04;;;;;;;10.00;4.10;;;;;;;;;;4965605;28;20039;-56
2021/08/12 14:20:33;;;;;;;11.20;4.25;;;;;;;;;;4969389;28;20034;-55
2021/08/12 14:23:01;;;;;;;7.82;3.92;;;;;;;;;;4969280;28;20043;-56
2021/08/12 14:25:27;;;;;;;10.93;4.30;;;;;;;;;;4983829;28;20074;-57
2021/08/12 14:27:54;;;;;;;10.85;4.22;;;;;;;;;;4988542;28;20038;-57
2021/08/12 14:30:20;;;;;;;9.02;4.10;;;;;;;;;;4967099;28;20045;-57
2021/08/12 14:32:48;;;;;;;12.80;4.10;;;;;;;;;;4969646;28;20039;-57
2021/08/12 14:35:16;;;;;;;9.73;4.80;;;;;;;;;;4969116;28;20043;-57